createdAt,value
2018-08-07T00:01:22.929Z,25.80
2018-08-07T00:03:53.353Z,25.91
2018-08-07T00:06:23.789Z,26.06
2018-08-07T00:08:54.192Z,25.99
2018-08-07T00:11:24.657Z,25.84
2018-08-07T00:13:55.094Z,25.86
2018-08-07T00:16:25.424Z,26.09
2018-08-07T00:18:58.561Z,26.12
2018-08-07T00:21:29.049Z,25.91
2018-08-07T00:23:59.365Z,25.90
2018-08-07T00:26:29.992Z,25.71
2018-08-07T00:29:00.324Z,25.60
2018-08-07T00:31:30.706Z,25.55
2018-08-07T00:34:01.169Z,25.53
2018-08-07T00:36:31.528Z,25.42
2018-08-07T00:39:01.850Z,25.44
2018-08-07T00:41:32.218Z,25.35
2018-08-07T00:44:02.504Z,25.44
2018-08-07T00:46:32.842Z,25.25
2018-08-07T00:49:03.298Z,25.52
2018-08-07T00:51:33.908Z,25.17
2018-08-07T00:54:04.788Z,25.00
2018-08-07T00:56:35.133Z,25.37
2018-08-07T00:59:05.997Z,25.41
2018-08-07T01:01:36.277Z,25.26
2018-08-07T01:04:06.580Z,25.27
2018-08-07T01:06:37.200Z,25.51
2018-08-07T01:09:09.830Z,25.43
2018-08-07T01:11:40.562Z,25.64
2018-08-07T01:14:10.884Z,25.67
2018-08-07T01:16:41.252Z,25.33
2018-08-07T01:19:11.580Z,25.27
2018-08-07T01:21:42.201Z,25.24
2018-08-07T01:24:12.424Z,25.18
2018-08-07T01:26:42.913Z,25.04
2018-08-07T01:29:13.275Z,24.98
2018-08-07T01:31:43.554Z,25.29
2018-08-07T01:34:13.977Z,25.10
2018-08-07T01:36:44.312Z,25.13
2018-08-07T01:39:14.690Z,25.09
2018-08-07T01:41:45.071Z,24.83
2018-08-07T01:44:15.625Z,25.04
2018-08-07T01:46:47.556Z,24.87
2018-08-07T01:49:18.125Z,24.85
2018-08-07T01:51:48.459Z,24.87
2018-08-07T01:54:18.816Z,24.59
2018-08-07T01:56:49.092Z,24.40
2018-08-07T01:59:19.492Z,24.51
2018-08-07T02:01:49.720Z,24.55
2018-08-07T02:04:20.077Z,24.45
2018-08-07T02:06:49.997Z,24.47
2018-08-07T02:09:20.450Z,24.37
2018-08-07T02:11:50.713Z,24.34
2018-08-07T02:14:21.136Z,24.37
2018-08-07T02:16:51.388Z,24.19
2018-08-07T02:19:21.686Z,23.92
2018-08-07T02:21:52.046Z,24.17
2018-08-07T02:24:22.652Z,24.41
2018-08-07T02:26:53.050Z,24.36
2018-08-07T02:29:23.569Z,24.18
2018-08-07T02:31:53.902Z,24.41
2018-08-07T02:34:24.285Z,24.16
2018-08-07T02:36:54.646Z,24.15
2018-08-07T02:39:25.103Z,24.31
2018-08-07T02:41:55.479Z,24.23
2018-08-07T02:44:25.826Z,23.97
2018-08-07T02:46:56.068Z,23.96
2018-08-07T02:49:26.327Z,24.19
2018-08-07T02:51:56.757Z,24.24
2018-08-07T02:54:27.095Z,24.23
2018-08-07T02:56:57.678Z,24.35
2018-08-07T02:59:28.093Z,24.29
2018-08-07T03:01:59.275Z,24.43
2018-08-07T03:04:29.590Z,24.26
2018-08-07T03:07:00.414Z,24.21
2018-08-07T03:09:30.705Z,24.39
2018-08-07T03:12:01.468Z,24.40
2018-08-07T03:14:32.131Z,24.30
2018-08-07T03:17:02.905Z,24.39
2018-08-07T03:19:33.424Z,24.50
2018-08-07T03:22:04.054Z,24.55
2018-08-07T03:24:34.745Z,24.33
2018-08-07T03:27:05.508Z,24.27
2018-08-07T03:29:36.126Z,24.24
2018-08-07T03:32:06.853Z,24.33
2018-08-07T03:34:37.574Z,24.42
2018-08-07T03:37:08.277Z,24.22
2018-08-07T03:39:38.932Z,24.41
2018-08-07T03:42:09.685Z,24.67
2018-08-07T03:44:39.970Z,24.66
2018-08-07T03:47:10.825Z,24.58
2018-08-07T03:49:40.917Z,24.37
2018-08-07T03:52:11.458Z,24.50
2018-08-07T03:54:42.113Z,24.88
2018-08-07T03:57:12.721Z,24.97
2018-08-07T03:59:43.889Z,24.91
2018-08-07T04:02:14.438Z,25.21
2018-08-07T04:04:45.125Z,25.33
2018-08-07T04:07:15.849Z,25.17
2018-08-07T04:09:46.669Z,25.34
2018-08-07T04:12:17.154Z,25.74
2018-08-07T04:14:47.848Z,25.82
2018-08-07T04:17:18.562Z,25.86
2018-08-07T04:19:49.350Z,25.78
2018-08-07T04:22:20.190Z,25.39
2018-08-07T04:24:51.077Z,25.58
2018-08-07T04:27:21.641Z,25.30
2018-08-07T04:29:52.625Z,25.55
2018-08-07T04:32:23.281Z,25.69
2018-08-07T04:34:53.889Z,25.64
2018-08-07T04:37:24.629Z,25.94
2018-08-07T04:39:55.217Z,25.75
2018-08-07T04:42:25.929Z,26.61
2018-08-07T04:44:56.765Z,27.33
2018-08-07T04:47:27.504Z,27.65
2018-08-07T04:49:58.392Z,27.76
2018-08-07T04:52:29.032Z,27.99
2018-08-07T04:54:59.676Z,28.11
2018-08-07T04:57:30.409Z,27.87
2018-08-07T05:00:01.207Z,27.78
2018-08-07T05:02:31.960Z,28.69
2018-08-07T05:05:02.826Z,28.48
2018-08-07T05:07:33.533Z,28.79
2018-08-07T05:10:04.585Z,29.46
2018-08-07T05:12:35.217Z,29.68
2018-08-07T05:15:06.641Z,29.06
2018-08-07T05:17:37.168Z,30.07
2018-08-07T05:20:08.181Z,29.63
2018-08-07T05:22:39.767Z,29.56
2018-08-07T05:25:11.641Z,29.68
2018-08-07T05:27:42.370Z,29.91
2018-08-07T05:30:15.458Z,30.82
2018-08-07T05:32:46.136Z,30.60
2018-08-07T05:35:17.341Z,30.24
2018-08-07T05:37:48.076Z,30.75
2018-08-07T05:40:18.866Z,30.51
2018-08-07T05:42:49.602Z,31.12
2018-08-07T05:45:20.292Z,30.11
2018-08-07T05:47:50.868Z,30.82
2018-08-07T05:50:22.115Z,30.27
2018-08-07T05:52:52.827Z,30.50
2018-08-07T05:55:23.668Z,30.86
2018-08-07T05:57:54.434Z,31.02
2018-08-07T06:00:25.268Z,30.74
2018-08-07T06:02:56.015Z,30.85
2018-08-07T06:05:26.947Z,30.74
2018-08-07T06:07:57.812Z,31.80
2018-08-07T06:10:28.655Z,31.54
2018-08-07T06:12:59.812Z,31.38
2018-08-07T06:15:31.109Z,31.59
2018-08-07T06:18:01.721Z,31.57
2018-08-07T06:20:32.584Z,31.72
2018-08-07T06:23:03.247Z,31.65
2018-08-07T06:25:34.147Z,32.78
2018-08-07T06:28:04.752Z,33.08
2018-08-07T06:30:35.486Z,32.84
2018-08-07T06:33:06.160Z,32.99
2018-08-07T06:35:37.013Z,32.71
2018-08-07T06:38:08.043Z,33.03
2018-08-07T06:40:39.042Z,32.52
2018-08-07T06:43:09.479Z,32.64
2018-08-07T06:45:40.209Z,32.61
2018-08-07T06:48:10.902Z,32.84
2018-08-07T06:50:41.721Z,32.92
2018-08-07T06:53:12.616Z,33.59
2018-08-07T06:55:43.379Z,33.40
2018-08-07T06:58:14.030Z,33.40
2018-08-07T07:00:44.825Z,33.90
2018-08-07T07:03:15.457Z,34.48
2018-08-07T07:05:46.159Z,34.85
2018-08-07T07:08:16.845Z,34.28
2018-08-07T07:10:47.496Z,34.61
2018-08-07T07:13:18.168Z,35.29
2018-08-07T07:15:48.983Z,34.73
2018-08-07T07:18:19.718Z,34.58
2018-08-07T07:20:50.614Z,34.75
2018-08-07T07:23:21.304Z,34.55
2018-08-07T07:25:51.811Z,34.34
2018-08-07T07:28:22.537Z,35.51
2018-08-07T07:30:53.685Z,35.93
2018-08-07T07:33:24.348Z,35.68
2018-08-07T07:35:55.256Z,35.88
2018-08-07T07:38:25.224Z,35.89
2018-08-07T07:40:56.196Z,35.40
2018-08-07T07:43:26.990Z,35.54
2018-08-07T07:45:57.845Z,35.78
2018-08-07T07:48:28.320Z,35.70
2018-08-07T07:50:59.173Z,35.71
2018-08-07T07:53:29.516Z,36.48
2018-08-07T07:56:00.473Z,36.87
2018-08-07T07:58:31.136Z,36.33
2018-08-07T08:01:02.161Z,37.56
2018-08-07T08:03:32.882Z,37.30
2018-08-07T08:06:03.627Z,37.26
2018-08-07T08:08:34.248Z,37.49
2018-08-07T08:11:05.221Z,37.76
2018-08-07T08:13:35.816Z,38.17
2018-08-07T08:16:06.625Z,37.82
2018-08-07T08:18:37.388Z,37.66
2018-08-07T08:21:08.585Z,38.61
2018-08-07T08:23:39.004Z,38.71
2018-08-07T08:26:09.912Z,39.29
2018-08-07T08:28:40.729Z,38.91
2018-08-07T08:31:11.836Z,38.57
2018-08-07T08:33:42.413Z,38.37
2018-08-07T08:36:13.449Z,37.88
2018-08-07T08:38:45.094Z,38.53
2018-08-07T08:41:16.228Z,39.02
2018-08-07T08:43:46.925Z,39.31
2018-08-07T08:46:17.466Z,39.02
2018-08-07T08:48:47.932Z,38.45
2018-08-07T08:51:18.561Z,38.79
2018-08-07T08:53:49.337Z,38.59
2018-08-07T08:56:19.796Z,39.26
2018-08-07T08:58:50.092Z,39.57
2018-08-07T09:01:20.542Z,38.88
2018-08-07T09:03:51.201Z,39.66
2018-08-07T09:06:22.226Z,40.46
2018-08-07T09:08:52.872Z,40.34
2018-08-07T09:11:24.187Z,39.48
2018-08-07T09:13:54.721Z,39.50
2018-08-07T09:16:25.505Z,40.00
2018-08-07T09:18:56.684Z,40.78
2018-08-07T09:21:27.549Z,39.41
2018-08-07T09:23:58.244Z,40.06
2018-08-07T09:26:28.933Z,39.96
2018-08-07T09:28:59.645Z,39.26
2018-08-07T09:31:30.539Z,39.82
2018-08-07T09:34:01.285Z,39.78
2018-08-07T09:36:32.060Z,40.53
2018-08-07T09:39:02.918Z,40.53
2018-08-07T09:41:33.813Z,40.46
2018-08-07T09:44:04.777Z,40.00
2018-08-07T09:46:37.565Z,39.85
2018-08-07T09:49:09.105Z,40.96
2018-08-07T09:51:39.424Z,41.32
2018-08-07T09:54:10.124Z,41.93
2018-08-07T09:56:41.128Z,41.69
2018-08-07T09:59:11.893Z,41.36
2018-08-07T10:01:47.648Z,41.80
2018-08-07T10:04:18.373Z,40.91
2018-08-07T10:06:49.085Z,41.81
2018-08-07T10:09:19.724Z,42.32
2018-08-07T10:11:50.476Z,42.31
2018-08-07T10:14:20.992Z,42.90
2018-08-07T10:16:51.769Z,41.68
2018-08-07T10:19:22.309Z,40.88
2018-08-07T10:21:52.916Z,40.91
2018-08-07T10:24:23.702Z,40.00
2018-08-07T10:26:54.712Z,39.88
2018-08-07T10:29:25.485Z,40.10
2018-08-07T10:31:56.363Z,40.91
2018-08-07T10:34:27.087Z,42.44
2018-08-07T10:36:57.808Z,41.10
2018-08-07T10:39:29.929Z,41.14
2018-08-07T10:42:00.840Z,41.32
2018-08-07T10:44:31.663Z,41.79
2018-08-07T10:47:02.413Z,41.34
2018-08-07T10:49:33.057Z,41.53
2018-08-07T10:52:04.020Z,42.04
2018-08-07T10:54:34.797Z,41.27
2018-08-07T10:57:06.520Z,41.53
2018-08-07T10:59:37.521Z,42.35
2018-08-07T11:02:08.948Z,41.48
2018-08-07T11:04:39.129Z,41.89
2018-08-07T11:07:09.648Z,42.85
2018-08-07T11:09:40.319Z,42.61
2018-08-07T11:12:11.132Z,43.66
2018-08-07T11:14:41.837Z,44.03
2018-08-07T11:17:12.695Z,42.44
2018-08-07T11:19:43.381Z,42.43
2018-08-07T11:22:14.023Z,41.73
2018-08-07T11:24:44.742Z,41.31
2018-08-07T11:27:15.441Z,41.43
2018-08-07T11:29:46.165Z,42.16
2018-08-07T11:32:16.513Z,41.61
2018-08-07T11:34:47.296Z,42.91
2018-08-07T11:37:18.115Z,41.61
2018-08-07T11:39:49.193Z,40.55
2018-08-07T11:42:19.858Z,40.26
2018-08-07T11:44:51.292Z,40.71
2018-08-07T11:47:23.158Z,39.31
2018-08-07T11:49:54.301Z,41.17
2018-08-07T11:52:24.940Z,42.24
2018-08-07T11:54:55.888Z,43.59
2018-08-07T11:57:26.641Z,43.68
2018-08-07T11:59:57.541Z,42.55
2018-08-07T12:02:28.310Z,40.67
2018-08-07T12:04:59.136Z,39.71
2018-08-07T12:07:29.805Z,39.56
2018-08-07T12:10:00.574Z,38.88
2018-08-07T12:12:31.684Z,39.20
2018-08-07T12:15:02.904Z,39.80
2018-08-07T12:17:33.815Z,39.93
2018-08-07T12:20:05.205Z,39.28
2018-08-07T12:22:36.173Z,39.13
2018-08-07T12:25:08.845Z,40.92
2018-08-07T12:27:39.731Z,40.71
2018-08-07T12:30:23.865Z,40.41
2018-08-07T12:32:54.651Z,41.75
2018-08-07T12:35:25.728Z,41.54
2018-08-07T12:37:56.478Z,41.41
2018-08-07T12:40:29.491Z,41.22
2018-08-07T12:43:03.038Z,42.45
2018-08-07T12:45:33.861Z,42.72
2018-08-07T12:48:04.760Z,40.76
2018-08-07T12:50:35.743Z,41.18
2018-08-07T12:53:06.494Z,42.43
2018-08-07T12:55:37.164Z,41.84
2018-08-07T12:58:07.857Z,40.94
2018-08-07T13:00:38.853Z,41.08
2018-08-07T13:03:09.481Z,42.14
2018-08-07T13:05:40.517Z,42.91
2018-08-07T13:08:11.268Z,43.45
2018-08-07T13:10:42.245Z,43.76
2018-08-07T13:13:12.989Z,42.52
2018-08-07T13:15:43.740Z,41.84
2018-08-07T13:18:14.398Z,40.65
2018-08-07T13:20:45.401Z,38.80
2018-08-07T13:23:16.141Z,38.98
2018-08-07T13:25:46.582Z,37.63
2018-08-07T13:28:17.196Z,37.81
2018-08-07T13:30:48.001Z,36.69
2018-08-07T13:33:18.756Z,36.05
2018-08-07T13:35:49.127Z,35.48
2018-08-07T13:38:19.657Z,35.19
2018-08-07T13:40:50.437Z,35.01
2018-08-07T13:43:21.232Z,34.63
2018-08-07T13:45:52.181Z,34.69
2018-08-07T13:48:22.388Z,34.31
2018-08-07T13:50:53.129Z,34.60
2018-08-07T13:53:23.867Z,34.71
2018-08-07T13:55:54.766Z,35.63
2018-08-07T13:58:25.492Z,35.21
2018-08-07T14:00:56.257Z,34.44
2018-08-07T14:03:26.833Z,34.44
2018-08-07T14:05:57.931Z,34.10
2018-08-07T14:08:28.525Z,35.21
2018-08-07T14:10:59.619Z,36.19
2018-08-07T14:13:30.334Z,36.53
2018-08-07T14:16:01.169Z,37.00
2018-08-07T14:18:31.626Z,36.78
2018-08-07T14:21:02.066Z,37.17
2018-08-07T14:23:32.401Z,36.57
2018-08-07T14:26:02.871Z,37.00
2018-08-07T14:28:33.528Z,36.92
2018-08-07T14:31:04.339Z,36.39
2018-08-07T14:33:35.264Z,37.07
2018-08-07T14:36:06.134Z,37.42
2018-08-07T14:38:36.840Z,37.88
2018-08-07T14:41:07.993Z,37.95
2018-08-07T14:43:39.529Z,37.22
2018-08-07T14:46:10.253Z,38.64
2018-08-07T14:48:40.993Z,37.74
2018-08-07T14:51:11.809Z,37.32
2018-08-07T14:53:42.671Z,37.39
2018-08-07T14:56:13.516Z,37.56
2018-08-07T14:58:43.951Z,38.02
2018-08-07T15:01:14.815Z,37.27
2018-08-07T15:03:45.135Z,37.07
2018-08-07T15:06:15.656Z,37.08
2018-08-07T15:08:46.123Z,36.87
2018-08-07T15:11:16.901Z,37.37
2018-08-07T15:13:47.289Z,37.29
2018-08-07T15:16:17.817Z,37.38
2018-08-07T15:18:48.209Z,37.27
2018-08-07T15:21:18.942Z,36.93
2018-08-07T15:23:49.564Z,36.40
2018-08-07T15:26:20.131Z,35.57
2018-08-07T15:28:50.541Z,35.99
2018-08-07T15:31:21.191Z,35.84
2018-08-07T15:33:52.002Z,36.43
2018-08-07T15:36:22.750Z,36.50
2018-08-07T15:38:53.243Z,36.11
2018-08-07T15:41:23.684Z,36.87
2018-08-07T15:43:54.178Z,36.57
2018-08-07T15:46:24.644Z,36.31
2018-08-07T15:48:55.400Z,36.29
2018-08-07T15:51:26.218Z,36.54
2018-08-07T15:53:56.601Z,35.63
2018-08-07T15:56:27.497Z,35.37
2018-08-07T15:58:57.974Z,35.27
2018-08-07T16:01:28.417Z,35.47
2018-08-07T16:03:59.911Z,35.13
2018-08-07T16:06:30.490Z,35.22
2018-08-07T16:09:01.281Z,35.30
2018-08-07T16:11:32.411Z,35.55
2018-08-07T16:14:02.863Z,35.75
2018-08-07T16:16:33.435Z,35.18
2018-08-07T16:19:03.856Z,35.14
2018-08-07T16:21:34.453Z,34.45
2018-08-07T16:24:05.002Z,34.35
2018-08-07T16:26:36.034Z,34.45
2018-08-07T16:54:37.113Z,33.92
2018-08-07T16:57:09.153Z,33.57
2018-08-07T16:59:39.889Z,33.71
2018-08-07T17:08:35.165Z,33.53
2018-08-07T17:11:05.857Z,33.12
2018-08-07T17:13:36.654Z,33.16
2018-08-07T17:16:07.927Z,33.34
2018-08-07T17:18:38.594Z,33.41
2018-08-07T17:21:09.229Z,33.03
2018-08-07T17:23:40.113Z,32.72
2018-08-07T17:26:10.825Z,32.92
2018-08-07T17:28:41.730Z,32.87
2018-08-07T17:31:12.453Z,32.83
2018-08-07T17:33:44.105Z,32.57
2018-08-07T17:36:14.729Z,32.69
2018-08-07T17:38:45.509Z,32.55
2018-08-07T17:41:16.132Z,32.36
2018-08-07T17:43:46.941Z,32.51
2018-08-07T17:46:17.519Z,32.49
2018-08-07T17:48:48.399Z,32.56
2018-08-07T17:51:19.069Z,32.37
2018-08-07T17:53:49.897Z,32.13
2018-08-07T17:56:20.616Z,32.36
2018-08-07T17:58:51.704Z,32.51
2018-08-07T18:01:22.365Z,32.30
2018-08-07T18:03:53.370Z,32.06
2018-08-07T18:06:24.280Z,32.03
2018-08-07T18:08:55.233Z,31.79
2018-08-07T18:11:25.841Z,31.87
2018-08-07T18:13:56.466Z,31.60
2018-08-07T18:16:27.125Z,31.72
2018-08-07T18:18:57.980Z,31.64
2018-08-07T18:21:28.682Z,31.12
2018-08-07T18:23:59.009Z,31.08
2018-08-07T18:26:29.292Z,31.22
2018-08-07T18:28:59.877Z,31.26
2018-08-07T18:31:30.534Z,31.35
2018-08-07T18:34:01.370Z,31.37
2018-08-07T18:36:31.854Z,31.25
2018-08-07T18:39:02.106Z,31.40
2018-08-07T18:41:32.488Z,31.51
2018-08-07T18:44:02.786Z,31.45
2018-08-07T18:46:33.026Z,31.19
2018-08-07T18:49:03.941Z,30.18
2018-08-07T18:51:34.359Z,30.33
2018-08-07T18:54:04.814Z,30.38
2018-08-07T18:56:35.925Z,29.85
2018-08-07T18:59:06.618Z,29.81
2018-08-07T19:01:37.125Z,29.88
2018-08-07T19:04:08.169Z,30.09
2018-08-07T19:06:38.629Z,30.19
2018-08-07T19:09:10.435Z,30.23
2018-08-07T19:11:41.569Z,29.93
2018-08-07T19:14:12.200Z,30.20
2018-08-07T19:16:42.774Z,29.87
2018-08-07T19:19:13.482Z,30.15
2018-08-07T19:21:44.105Z,30.32
2018-08-07T19:24:14.826Z,30.29
2018-08-07T19:26:45.371Z,30.17
2018-08-07T19:29:16.657Z,30.23
2018-08-07T19:31:47.297Z,30.09
2018-08-07T19:34:18.216Z,30.03
2018-08-07T19:36:49.078Z,30.05
2018-08-07T19:39:20.501Z,30.02
2018-08-07T19:41:50.947Z,29.87
2018-08-07T19:44:21.833Z,29.68
2018-08-07T19:46:52.455Z,29.39
2018-08-07T19:49:23.317Z,29.74
2018-08-07T19:51:53.613Z,29.75
2018-08-07T19:54:24.066Z,30.04
2018-08-07T19:56:54.360Z,29.94
2018-08-07T19:59:24.693Z,30.04
2018-08-07T20:01:55.470Z,30.12
2018-08-07T20:04:26.447Z,30.03
2018-08-07T20:06:57.098Z,29.72
2018-08-07T20:09:27.917Z,29.72
2018-08-07T20:11:58.200Z,29.78
2018-08-07T20:14:28.577Z,29.81
2018-08-07T20:16:59.128Z,29.76
2018-08-07T20:19:29.617Z,29.72
2018-08-07T20:22:00.253Z,29.73
2018-08-07T20:24:30.578Z,29.65
2018-08-07T20:27:01.421Z,29.77
2018-08-07T20:29:32.205Z,29.75
2018-08-07T20:32:02.953Z,29.62
2018-08-07T20:34:33.290Z,29.59
2018-08-07T20:37:03.713Z,29.46
2018-08-07T20:39:34.357Z,29.40
2018-08-07T20:42:04.870Z,29.19
2018-08-07T20:44:35.621Z,29.41
2018-08-07T20:47:05.945Z,29.31
2018-08-07T20:49:36.280Z,29.13
2018-08-07T20:52:06.694Z,29.04
2018-08-07T20:54:39.352Z,29.07
2018-08-07T20:57:10.117Z,29.10
2018-08-07T20:59:40.941Z,29.11
2018-08-07T21:02:11.643Z,29.17
2018-08-07T21:04:42.401Z,29.35
2018-08-07T21:07:12.626Z,29.53
2018-08-07T21:09:43.105Z,29.59
2018-08-07T21:12:13.429Z,29.61
2018-08-07T21:14:43.821Z,29.66
2018-08-07T21:17:13.979Z,29.74
2018-08-07T21:19:44.667Z,29.71
2018-08-07T21:22:15.262Z,29.64
2018-08-07T21:24:46.170Z,29.70
2018-08-07T21:27:16.805Z,29.37
2018-08-07T21:29:47.927Z,29.16
2018-08-07T21:32:18.634Z,29.19
2018-08-07T21:34:50.020Z,29.14
2018-08-07T21:37:20.630Z,29.22
2018-08-07T21:39:50.716Z,29.12
2018-08-07T21:42:21.197Z,29.04
2018-08-07T21:44:51.800Z,29.06
2018-08-07T21:47:22.729Z,28.89
2018-08-07T21:49:53.318Z,28.97
2018-08-07T21:52:24.293Z,29.01
2018-08-07T21:54:54.936Z,29.11
2018-08-07T21:57:25.668Z,29.04
2018-08-07T21:59:56.398Z,29.04
2018-08-07T22:02:27.383Z,29.10
2018-08-07T22:04:57.949Z,28.92
2018-08-07T22:07:28.936Z,28.85
2018-08-07T22:09:59.624Z,28.88
2018-08-07T22:12:30.366Z,28.98
2018-08-07T22:15:01.106Z,28.87
2018-08-07T22:17:31.769Z,28.79
2018-08-07T22:20:02.213Z,28.88
2018-08-07T22:22:32.908Z,28.81
2018-08-07T22:25:03.011Z,28.79
2018-08-07T22:27:33.785Z,28.73
2018-08-07T22:30:05.341Z,28.72
2018-08-07T22:32:35.804Z,28.45
2018-08-07T22:35:08.240Z,28.32
2018-08-07T22:37:39.225Z,28.09
2018-08-07T22:40:10.745Z,28.13
2018-08-07T22:42:41.571Z,28.11
2018-08-07T22:45:14.305Z,28.09
2018-08-07T22:47:45.141Z,28.05
2018-08-07T22:50:17.117Z,27.99
2018-08-07T22:52:48.017Z,27.67
2018-08-07T22:55:19.828Z,27.91
2018-08-07T22:57:50.187Z,28.01
2018-08-07T23:00:22.571Z,28.00
2018-08-07T23:02:53.317Z,27.92
2018-08-07T23:05:24.498Z,27.88
2018-08-07T23:07:55.633Z,27.88
2018-08-07T23:10:26.443Z,27.73
2018-08-07T23:12:57.277Z,27.90
2018-08-07T23:15:27.908Z,27.78
2018-08-07T23:18:41.133Z,27.93
2018-08-07T23:21:11.847Z,27.78
2018-08-07T23:23:42.274Z,27.61
2018-08-07T23:26:12.756Z,27.48
2018-08-07T23:28:43.635Z,27.84
2018-08-07T23:31:14.293Z,27.77
2018-08-07T23:33:45.169Z,27.92
2018-08-07T23:36:15.937Z,27.80
2018-08-07T23:38:46.593Z,27.68
2018-08-07T23:41:17.242Z,27.74
2018-08-07T23:43:48.216Z,27.32
2018-08-07T23:46:18.720Z,27.37
2018-08-07T23:48:49.480Z,27.37
2018-08-07T23:51:20.006Z,27.14
2018-08-07T23:53:50.853Z,27.44
2018-08-07T23:56:21.500Z,27.56
2018-08-07T23:58:52.337Z,27.53
